createdAt,value
2018-09-23T00:01:50.687Z,1018.6
2018-09-23T00:06:51.207Z,1018.5
2018-09-23T00:11:50.401Z,1018.5
2018-09-23T00:16:51.294Z,1018.3
2018-09-23T00:21:51.224Z,1018.3
2018-09-23T00:26:50.771Z,1018.2
2018-09-23T00:31:51.053Z,1018
2018-09-23T00:36:50.497Z,1017.8
2018-09-23T00:41:50.709Z,1017.8
2018-09-23T00:46:51.043Z,1017.9
2018-09-23T00:51:51.123Z,1017.6
2018-09-23T00:56:51.091Z,1017.5
2018-09-23T01:01:50.398Z,1017.6
2018-09-23T01:06:50.915Z,1017.4
2018-09-23T01:11:51.145Z,1017.4
2018-09-23T01:16:50.465Z,1017.6
2018-09-23T01:21:50.849Z,1017.5
2018-09-23T01:26:50.435Z,1017.5
2018-09-23T01:31:50.746Z,1017.4
2018-09-23T01:36:51.213Z,1017.3
2018-09-23T01:41:50.441Z,1017.3
2018-09-23T01:46:50.712Z,1017.2
2018-09-23T01:51:51.157Z,1017.2
2018-09-23T01:56:50.762Z,1017
2018-09-23T02:01:51.042Z,1016.8
2018-09-23T02:06:50.543Z,1016.6
2018-09-23T02:11:50.777Z,1016.6
2018-09-23T02:16:51.092Z,1016.5
2018-09-23T02:21:50.543Z,1016.5
2018-09-23T02:26:51.123Z,1016.3
2018-09-23T02:31:50.491Z,1016.3
2018-09-23T02:36:50.885Z,1016.3
2018-09-23T02:41:51.108Z,1016.1
2018-09-23T02:46:50.552Z,1016.1
2018-09-23T02:51:50.881Z,1016.1
2018-09-23T02:56:50.502Z,1016.1
2018-09-23T03:01:50.826Z,1016
2018-09-23T03:06:51.318Z,1015.9
2018-09-23T03:11:50.552Z,1016
2018-09-23T03:16:51.556Z,1015.8
2018-09-23T03:21:51.280Z,1015.8
2018-09-23T03:26:50.925Z,1015.6
2018-09-23T03:31:51.819Z,1015.7
2018-09-23T03:36:52.067Z,1015.6
2018-09-23T03:41:50.967Z,1015.5
2018-09-23T03:46:51.168Z,1015.6
2018-09-23T03:51:52.041Z,1015.4
2018-09-23T03:56:51.229Z,1015.2
2018-09-23T04:01:50.575Z,1015.2
2018-09-23T04:06:51.032Z,1014.9
2018-09-23T04:11:51.422Z,1014.9
2018-09-23T04:16:50.610Z,1014.7
2018-09-23T04:21:51.425Z,1014.5
2018-09-23T04:26:50.639Z,1014.6
2018-09-23T04:31:50.905Z,1014.2
2018-09-23T04:36:51.754Z,1014.4
2018-09-23T04:41:51.004Z,1014.3
2018-09-23T04:46:51.339Z,1014.2
2018-09-23T04:51:51.372Z,1014.2
2018-09-23T04:56:50.960Z,1014.4
2018-09-23T05:01:51.639Z,1014.5
2018-09-23T05:06:50.776Z,1014.3
2018-09-23T05:11:56.143Z,1014.3
2018-09-23T05:16:50.458Z,1014.3
2018-09-23T05:21:50.875Z,1014.2
2018-09-23T05:26:50.450Z,1014.2
2018-09-23T05:31:50.782Z,1014.2
2018-09-23T05:36:50.715Z,1014.2
2018-09-23T05:41:50.808Z,1014
2018-09-23T05:46:51.077Z,1013.9
2018-09-23T05:51:50.619Z,1013.9
2018-09-23T05:56:51.194Z,1014
2018-09-23T06:01:50.542Z,1013.9
2018-09-23T06:06:50.955Z,1013.9
2018-09-23T06:11:51.132Z,1013.8
2018-09-23T06:16:50.882Z,1013.8
2018-09-23T06:21:50.917Z,1013.8
2018-09-23T06:26:50.471Z,1013.6
2018-09-23T06:31:50.782Z,1013.6
2018-09-23T06:36:51.501Z,1013.7
2018-09-23T06:41:50.447Z,1013.7
2018-09-23T06:46:50.745Z,1013.6
2018-09-23T06:51:51.265Z,1013.6
2018-09-23T06:56:51.042Z,1013.5
2018-09-23T07:01:51.045Z,1013.5
2018-09-23T07:06:50.573Z,1013.5
2018-09-23T07:11:50.772Z,1013.6
2018-09-23T07:16:51.099Z,1013.5
2018-09-23T07:21:50.558Z,1013.7
2018-09-23T07:26:51.078Z,1013.6
2018-09-23T07:31:50.436Z,1013.5
2018-09-23T07:36:51.715Z,1013.5
2018-09-23T07:41:51.042Z,1013.2
2018-09-23T07:46:51.369Z,1013.1
2018-09-23T07:51:50.837Z,1013.2
2018-09-23T07:56:50.395Z,1013.1
2018-09-23T08:01:51.101Z,1013
2018-09-23T08:06:51.227Z,1012.9
2018-09-23T08:11:50.414Z,1012.7
2018-09-23T08:16:50.743Z,1012.6
2018-09-23T08:21:51.156Z,1012.7
2018-09-23T08:26:50.789Z,1012.7
2018-09-23T08:31:51.008Z,1012.7
2018-09-23T08:36:50.808Z,1012.6
2018-09-23T08:41:50.737Z,1012.6
2018-09-23T08:46:51.423Z,1012.6
2018-09-23T08:51:51.079Z,1012.7
2018-09-23T08:56:51.108Z,1012.7
2018-09-23T09:01:50.433Z,1012.5
2018-09-23T09:06:50.869Z,1012.3
2018-09-23T09:11:51.644Z,1012.1
2018-09-23T09:16:50.448Z,1011.9
2018-09-23T09:21:50.845Z,1011.9
2018-09-23T09:26:50.919Z,1011.9
2018-09-23T09:31:51.134Z,1012.1
2018-09-23T09:36:51.496Z,1011.9
2018-09-23T09:41:50.809Z,1011.7
2018-09-23T09:46:50.710Z,1011.6
2018-09-23T09:51:51.558Z,1011.4
2018-09-23T09:56:50.727Z,1011.3
2018-09-23T10:01:51.036Z,1011.3
2018-09-23T10:06:50.540Z,1011.1
2018-09-23T10:11:51.173Z,1011
2018-09-23T10:16:51.087Z,1010.5
2018-09-23T10:21:50.533Z,1010.4
2018-09-23T10:26:51.096Z,1010.3
2018-09-23T10:31:51.536Z,1010.5
2018-09-23T10:36:51.237Z,1010.2
2018-09-23T10:41:51.066Z,1010.4
2018-09-23T10:46:50.408Z,1010.8
2018-09-23T10:51:50.842Z,1011
2018-09-23T10:56:50.461Z,1011.1
2018-09-23T11:01:50.740Z,1010.9
2018-09-23T11:06:51.260Z,1011.1
2018-09-23T11:11:50.836Z,1011.1
2018-09-23T11:16:50.764Z,1010.9
2018-09-23T11:21:51.198Z,1010.3
2018-09-23T11:26:50.896Z,1010.1
2018-09-23T11:31:51.132Z,1009.6
2018-09-23T11:36:50.784Z,1009.8
2018-09-23T11:41:50.757Z,1010
2018-09-23T11:46:51.487Z,1009.6
2018-09-23T11:51:50.622Z,1009.4
2018-09-23T11:56:51.825Z,1008.8
2018-09-23T12:01:50.544Z,1008.8
2018-09-23T12:06:52.060Z,1008.7
2018-09-23T12:11:51.215Z,1009.5
2018-09-23T12:16:50.569Z,1009.7
2018-09-23T12:21:50.975Z,1009.8
2018-09-23T12:26:50.558Z,1009.9
2018-09-23T12:31:50.868Z,1009.8
2018-09-23T12:36:51.329Z,1010.1
2018-09-23T12:41:50.560Z,1010.3
2018-09-23T12:46:50.846Z,1010.7
2018-09-23T12:51:51.283Z,1011.1
2018-09-23T12:56:50.931Z,1010.5
2018-09-23T13:01:51.183Z,1010.1
2018-09-23T13:06:51.470Z,1010.1
2018-09-23T13:11:50.921Z,1010.7
2018-09-23T13:16:52.205Z,1010.9
2018-09-23T13:21:50.692Z,1010.9
2018-09-23T13:26:51.700Z,1010.6
2018-09-23T13:31:50.531Z,1010.5
2018-09-23T13:36:51.394Z,1010.4
2018-09-23T13:41:51.561Z,1010.3
2018-09-23T13:46:50.571Z,1010.4
2018-09-23T13:51:50.957Z,1010.5
2018-09-23T13:56:50.598Z,1009.9
2018-09-23T14:01:50.859Z,1010.4
2018-09-23T14:06:51.321Z,1010.8
2018-09-23T14:11:50.568Z,1011.2
2018-09-23T14:16:50.851Z,1011.6
2018-09-23T14:21:51.256Z,1011.7
2018-09-23T14:26:50.890Z,1011.6
2018-09-23T14:31:51.203Z,1011.8
2018-09-23T14:36:51.059Z,1011.7
2018-09-23T14:41:50.886Z,1012
2018-09-23T14:46:51.229Z,1012.1
2018-09-23T14:51:50.683Z,1012.2
2018-09-23T14:56:51.258Z,1012.2
2018-09-23T15:01:50.622Z,1012.5
2018-09-23T15:06:51.098Z,1012.8
2018-09-23T15:11:51.342Z,1012.7
2018-09-23T15:16:50.738Z,1012.9
2018-09-23T15:21:51.585Z,1012.8
2018-09-23T15:26:50.621Z,1013
2018-09-23T15:31:50.928Z,1012.9
2018-09-23T15:36:51.439Z,1012.9
2018-09-23T15:41:50.614Z,1013.2
2018-09-23T15:46:50.926Z,1013.5
2018-09-23T15:51:51.358Z,1013.6
2018-09-23T15:56:51.005Z,1013.7
2018-09-23T16:01:51.262Z,1014.1
2018-09-23T16:06:50.777Z,1014.2
2018-09-23T16:11:50.940Z,1014.4
2018-09-23T16:16:51.282Z,1014.6
2018-09-23T16:21:50.737Z,1014.8
2018-09-23T16:26:50.321Z,1015
2018-09-23T16:31:50.867Z,1015.1
2018-09-23T16:36:51.086Z,1015.2
2018-09-23T16:41:50.393Z,1015.3
2018-09-23T16:46:50.647Z,1015.6
2018-09-23T16:51:51.099Z,1015.8
2018-09-23T16:56:50.763Z,1016.1
2018-09-23T17:01:51.049Z,1016.4
2018-09-23T17:06:50.493Z,1016.5
2018-09-23T17:11:50.685Z,1016.6
2018-09-23T17:16:51.016Z,1016.8
2018-09-23T17:21:51.121Z,1017
2018-09-23T17:26:51.084Z,1017.1
2018-09-23T17:31:50.913Z,1017.3
2018-09-23T17:36:50.831Z,1017.5
2018-09-23T17:41:51.055Z,1017.8
2018-09-23T17:46:50.344Z,1017.9
2018-09-23T17:51:51.247Z,1018.1
2018-09-23T17:56:50.449Z,1018.3
2018-09-23T18:01:50.913Z,1018.4
2018-09-23T18:06:51.231Z,1018.6
2018-09-23T18:11:51.457Z,1018.7
2018-09-23T18:16:50.789Z,1018.8
2018-09-23T18:21:51.195Z,1019
2018-09-23T18:26:50.839Z,1019.3
2018-09-23T18:31:51.123Z,1019.5
2018-09-23T18:36:50.631Z,1019.5
2018-09-23T18:41:50.800Z,1019.8
2018-09-23T18:46:51.107Z,1019.9
2018-09-23T18:51:50.916Z,1020
2018-09-23T18:56:51.433Z,1020.2
2018-09-23T19:01:50.975Z,1020.4
2018-09-23T19:06:50.997Z,1020.5
2018-09-23T19:11:51.219Z,1020.7
2018-09-23T19:16:50.983Z,1020.6
2018-09-23T19:21:51.292Z,1020.9
2018-09-23T19:26:51.096Z,1021
2018-09-23T19:31:52.431Z,1021.2
2018-09-23T19:36:51.289Z,1021.3
2018-09-23T19:41:50.654Z,1021.5
2018-09-23T19:46:50.898Z,1021.7
2018-09-23T19:51:51.233Z,1021.9
2018-09-23T19:56:50.896Z,1022.1
2018-09-23T20:01:51.193Z,1022.3
2018-09-23T20:06:50.945Z,1022.3
2018-09-23T20:11:50.874Z,1022.4
2018-09-23T20:16:51.502Z,1022.5
2018-09-23T20:21:50.644Z,1022.5
2018-09-23T20:26:51.244Z,1022.7
2018-09-23T20:31:50.590Z,1022.8
2018-09-23T20:36:50.996Z,1022.8
2018-09-23T20:41:51.222Z,1023.1
2018-09-23T20:46:50.579Z,1023.1
2018-09-23T20:51:50.918Z,1023.2
2018-09-23T20:56:51.150Z,1023.4
2018-09-23T21:01:51.225Z,1023.6
2018-09-23T21:06:51.338Z,1023.7
2018-09-23T21:11:50.529Z,1023.8
2018-09-23T21:16:50.894Z,1023.8
2018-09-23T21:21:51.304Z,1023.9
2018-09-23T21:26:50.892Z,1024
2018-09-23T21:31:51.276Z,1024.2
2018-09-23T21:36:50.680Z,1024.2
2018-09-23T21:41:50.900Z,1024.3
2018-09-23T21:46:51.245Z,1024.5
2018-09-23T21:51:50.636Z,1024.7
2018-09-23T21:56:51.224Z,1024.7
2018-09-23T22:01:50.745Z,1024.7
2018-09-23T22:06:51.037Z,1024.8
2018-09-23T22:11:51.296Z,1024.9
2018-09-23T22:16:50.595Z,1025
2018-09-23T22:21:51.527Z,1025.1
2018-09-23T22:26:50.593Z,1025.2
2018-09-23T22:31:50.989Z,1025.3
2018-09-23T22:36:51.329Z,1025.4
2018-09-23T22:41:50.571Z,1025.5
2018-09-23T22:46:51.011Z,1025.6
2018-09-23T22:51:51.386Z,1025.7
2018-09-23T22:56:50.952Z,1025.9
2018-09-23T23:01:51.266Z,1026
2018-09-23T23:06:50.730Z,1026.1
2018-09-23T23:11:50.971Z,1026.2
2018-09-23T23:16:51.310Z,1026.2
2018-09-23T23:21:50.665Z,1026.3
2018-09-23T23:26:50.735Z,1026.4
2018-09-23T23:31:50.675Z,1026.5
2018-09-23T23:36:51.076Z,1026.6
2018-09-23T23:41:51.241Z,1026.8
2018-09-23T23:46:50.681Z,1026.8
2018-09-23T23:51:51.072Z,1027
2018-09-23T23:56:51.105Z,1027.1
